Time;durP1;ratioP1;P1;durP2;ratioP2;P2;SDS_P1;SDS_P2;PMS_P1;PMS_P2;Temp;Humidity;BMP_temperature;BMP_pressure;BME280_temperature;BME280_humidity;BME280_pressure;Samples;Min_cycle;Max_cycle;Signal;HPM_P1;HPM_P2
2023/08/22 00:01:04;;;;;;;6.50;3.70;;;;;;;;;;10454615;28;20535;-59
2023/08/22 00:06:05;;;;;;;8.77;3.80;;;;;;;;;;10454308;28;20049;-61
2023/08/22 00:11:05;;;;;;;14.80;4.78;;;;;;;;;;10454627;28;20025;-60
2023/08/22 00:16:05;;;;;;;7.97;4.00;;;;;;;;;;10454405;28;20067;-60
2023/08/22 00:21:06;;;;;;;10.87;4.57;;;;;;;;;;10454855;28;20103;-59
2023/08/22 00:26:06;;;;;;;5.87;3.87;;;;;;;;;;10452571;28;20017;-60
2023/08/22 00:31:07;;;;;;;6.67;3.50;;;;;;;;;;10452670;28;20036;-60
2023/08/22 00:36:07;;;;;;;9.40;3.93;;;;;;;;;;10453417;28;20152;-61
2023/08/22 00:41:07;;;;;;;4.83;3.13;;;;;;;;;;10453602;28;20513;-62
2023/08/22 00:46:08;;;;;;;4.07;3.23;;;;;;;;;;10454050;28;20021;-61
2023/08/22 00:51:08;;;;;;;9.95;3.42;;;;;;;;;;10453146;28;20040;-61
2023/08/22 00:56:09;;;;;;;7.57;3.70;;;;;;;;;;10453496;28;20025;-61
2023/08/22 01:01:09;;;;;;;6.73;3.77;;;;;;;;;;10452638;28;20429;-61
2023/08/22 01:06:19;;;;;;;7.57;3.20;;;;;;;;;;10452605;28;20546;-62
2023/08/22 01:11:27;;;;;;;4.80;3.72;;;;;;;;;;10452192;28;20060;-62
2023/08/22 01:16:28;;;;;;;8.13;3.90;;;;;;;;;;10434236;28;20053;-61
2023/08/22 01:21:29;;;;;;;7.30;4.10;;;;;;;;;;10450794;28;20098;-61
2023/08/22 01:26:30;;;;;;;10.93;4.05;;;;;;;;;;10451324;28;20358;-61
2023/08/22 01:31:49;;;;;;;5.97;4.18;;;;;;;;;;10451007;28;20037;-59
2023/08/22 01:36:53;;;;;;;5.05;3.72;;;;;;;;;;10449725;28;20017;-61
2023/08/22 01:41:55;;;;;;;7.50;3.95;;;;;;;;;;10450823;28;20027;-63
2023/08/22 01:46:56;;;;;;;4.47;3.67;;;;;;;;;;10450614;28;20502;-59
2023/08/22 01:51:58;;;;;;;4.97;4.00;;;;;;;;;;10450370;28;20060;-60
2023/08/22 01:56:58;;;;;;;7.32;3.80;;;;;;;;;;10450655;28;20024;-61
2023/08/22 02:01:59;;;;;;;5.33;3.70;;;;;;;;;;10451056;28;20021;-62
2023/08/22 02:06:59;;;;;;;4.53;3.57;;;;;;;;;;10450342;28;20033;-62
2023/08/22 02:11:59;;;;;;;6.53;4.00;;;;;;;;;;10450639;28;20033;-61
2023/08/22 02:17:00;;;;;;;6.43;3.67;;;;;;;;;;10450024;28;20024;-60
2023/08/22 02:22:00;;;;;;;3.90;3.40;;;;;;;;;;10450035;28;20913;-63
2023/08/22 02:27:03;;;;;;;6.20;4.00;;;;;;;;;;10449932;28;20032;-61
2023/08/22 02:32:04;;;;;;;4.57;3.30;;;;;;;;;;10450064;28;20033;-62
2023/08/22 02:37:04;;;;;;;3.50;3.20;;;;;;;;;;10450778;28;20178;-61
2023/08/22 02:42:05;;;;;;;4.00;3.60;;;;;;;;;;10449845;28;20175;-62
2023/08/22 02:47:05;;;;;;;4.03;3.30;;;;;;;;;;10450068;28;20494;-62
2023/08/22 02:52:06;;;;;;;4.27;3.63;;;;;;;;;;10454073;28;20033;-62
2023/08/22 02:57:07;;;;;;;4.50;3.67;;;;;;;;;;10457899;28;20450;-62
2023/08/22 03:02:08;;;;;;;9.18;3.60;;;;;;;;;;10457870;28;20441;-62
2023/08/22 03:07:09;;;;;;;5.00;3.67;;;;;;;;;;10457692;28;20032;-61
2023/08/22 03:12:10;;;;;;;4.10;3.70;;;;;;;;;;10457077;28;20043;-60
2023/08/22 03:17:10;;;;;;;7.37;3.50;;;;;;;;;;10457218;28;20025;-60
2023/08/22 03:22:10;;;;;;;5.28;3.50;;;;;;;;;;10456723;28;20373;-60
2023/08/22 03:27:11;;;;;;;6.57;3.60;;;;;;;;;;10456475;28;20017;-59
2023/08/22 03:32:11;;;;;;;4.47;3.57;;;;;;;;;;10456722;28;20060;-59
2023/08/22 03:37:12;;;;;;;3.60;3.30;;;;;;;;;;10456593;28;20553;-61
2023/08/22 03:42:12;;;;;;;3.70;3.40;;;;;;;;;;10455939;28;20449;-60
2023/08/22 03:47:13;;;;;;;5.57;3.53;;;;;;;;;;10455458;28;20128;-61
2023/08/22 03:52:13;;;;;;;4.25;3.17;;;;;;;;;;10455498;28;20059;-60
2023/08/22 03:57:14;;;;;;;4.57;3.00;;;;;;;;;;10455306;28;20033;-61
2023/08/22 04:02:14;;;;;;;4.43;3.43;;;;;;;;;;10454129;28;20445;-60
2023/08/22 04:07:14;;;;;;;3.83;3.10;;;;;;;;;;10455294;28;20052;-60
2023/08/22 04:12:15;;;;;;;3.67;3.37;;;;;;;;;;10454598;28;20127;-60
2023/08/22 04:17:15;;;;;;;4.33;3.43;;;;;;;;;;10454903;28;20040;-60
2023/08/22 04:22:15;;;;;;;3.77;3.37;;;;;;;;;;10453842;28;20495;-61
2023/08/22 04:27:16;;;;;;;9.77;3.00;;;;;;;;;;10454179;28;20091;-62
2023/08/22 04:32:16;;;;;;;3.80;3.30;;;;;;;;;;10453833;28;20380;-61
2023/08/22 04:37:16;;;;;;;3.50;3.00;;;;;;;;;;10453752;28;20396;-61
2023/08/22 04:42:17;;;;;;;4.70;3.43;;;;;;;;;;10453581;28;20537;-62
2023/08/22 04:47:17;;;;;;;3.87;3.00;;;;;;;;;;10453857;28;20131;-63
2023/08/22 04:52:17;;;;;;;8.90;3.57;;;;;;;;;;10453098;28;20040;-61
2023/08/22 04:57:20;;;;;;;10.00;2.67;;;;;;;;;;10452991;28;20056;-61
2023/08/22 05:02:21;;;;;;;6.03;3.67;;;;;;;;;;10452374;28;20095;-63
2023/08/22 05:07:22;;;;;;;3.30;3.00;;;;;;;;;;10452492;28;20473;-62
2023/08/22 05:12:23;;;;;;;5.93;2.97;;;;;;;;;;10451843;28;20033;-60
2023/08/22 05:17:23;;;;;;;3.40;3.10;;;;;;;;;;10452194;28;20120;-61
2023/08/22 05:22:23;;;;;;;5.73;3.20;;;;;;;;;;10452421;28;20024;-60
2023/08/22 05:27:24;;;;;;;4.13;3.50;;;;;;;;;;10452014;28;20029;-61
2023/08/22 05:32:24;;;;;;;4.00;3.23;;;;;;;;;;10451285;28;20064;-62
2023/08/22 05:37:25;;;;;;;3.83;3.43;;;;;;;;;;10411750;22;20054;-72
2023/08/22 05:42:25;;;;;;;8.15;3.00;;;;;;;;;;10368780;28;20034;-72
2023/08/22 05:47:26;;;;;;;3.55;2.85;;;;;;;;;;10368618;28;20477;-71
2023/08/22 05:52:28;;;;;;;4.18;2.95;;;;;;;;;;10369259;28;20054;-75
2023/08/22 05:57:29;;;;;;;4.33;2.87;;;;;;;;;;10367492;28;20253;-71
2023/08/22 06:02:29;;;;;;;4.75;4.30;;;;;;;;;;10367978;28;20021;-66
2023/08/22 06:07:29;;;;;;;5.93;4.20;;;;;;;;;;10368185;28;20018;-67
2023/08/22 06:12:30;;;;;;;6.80;4.20;;;;;;;;;;10367456;28;20026;-67
2023/08/22 06:17:30;;;;;;;4.73;4.33;;;;;;;;;;10367147;28;20026;-65
2023/08/22 06:22:31;;;;;;;10.68;3.83;;;;;;;;;;10367270;28;20018;-71
2023/08/22 06:27:32;;;;;;;7.03;3.97;;;;;;;;;;10365745;28;20037;-72
2023/08/22 06:32:32;;;;;;;4.78;4.28;;;;;;;;;;10367160;28;20033;-72
2023/08/22 06:37:32;;;;;;;8.27;4.37;;;;;;;;;;10367391;28;20050;-72
2023/08/22 06:42:33;;;;;;;7.90;4.27;;;;;;;;;;10366913;28;20034;-72
2023/08/22 06:47:33;;;;;;;8.80;4.20;;;;;;;;;;10366271;28;20025;-72
2023/08/22 06:52:34;;;;;;;4.87;4.10;;;;;;;;;;10367979;28;20030;-71
2023/08/22 06:57:35;;;;;;;4.70;3.75;;;;;;;;;;10367903;28;20040;-69
2023/08/22 07:02:36;;;;;;;4.68;4.10;;;;;;;;;;10367718;28;20037;-69
2023/08/22 07:07:37;;;;;;;4.90;4.10;;;;;;;;;;10367129;28;20389;-72
2023/08/22 07:12:38;;;;;;;5.65;4.25;;;;;;;;;;10367075;28;20448;-71
2023/08/22 07:17:38;;;;;;;4.57;4.18;;;;;;;;;;10367474;28;20135;-72
2023/08/22 07:22:39;;;;;;;4.60;3.87;;;;;;;;;;10367052;28;20063;-71
2023/08/22 07:27:39;;;;;;;6.38;4.30;;;;;;;;;;10367281;28;20454;-71
2023/08/22 07:32:39;;;;;;;5.00;3.97;;;;;;;;;;10367172;28;20351;-71
2023/08/22 07:37:40;;;;;;;4.53;4.13;;;;;;;;;;10370289;28;20999;-71
2023/08/22 07:42:40;;;;;;;6.97;4.40;;;;;;;;;;10373948;28;20109;-71
2023/08/22 07:47:41;;;;;;;5.97;4.00;;;;;;;;;;10373599;28;20505;-71
2023/08/22 07:52:41;;;;;;;5.13;4.33;;;;;;;;;;10373401;28;20462;-71
2023/08/22 07:57:41;;;;;;;6.43;4.27;;;;;;;;;;10373308;28;20577;-71
2023/08/22 08:02:42;;;;;;;3.97;3.57;;;;;;;;;;10373057;28;20018;-71
2023/08/22 08:07:42;;;;;;;4.50;3.60;;;;;;;;;;10373361;28;20033;-71
2023/08/22 08:12:42;;;;;;;6.57;4.10;;;;;;;;;;10373366;28;20030;-71
2023/08/22 08:17:43;;;;;;;4.90;4.30;;;;;;;;;;10373014;28;20029;-71
2023/08/22 08:22:43;;;;;;;4.63;4.20;;;;;;;;;;10372277;28;20092;-71
2023/08/22 08:27:44;;;;;;;4.73;4.23;;;;;;;;;;10372556;28;20102;-71
2023/08/22 08:32:45;;;;;;;4.50;3.58;;;;;;;;;;10371675;28;20473;-71
2023/08/22 08:37:46;;;;;;;4.80;4.30;;;;;;;;;;10371591;28;20045;-71
2023/08/22 08:42:47;;;;;;;4.10;3.80;;;;;;;;;;10370760;28;20026;-70
2023/08/22 08:47:48;;;;;;;4.53;4.13;;;;;;;;;;10370490;28;20378;-71
2023/08/22 08:52:48;;;;;;;5.20;4.00;;;;;;;;;;10369744;28;20041;-71
2023/08/22 08:57:49;;;;;;;4.20;3.80;;;;;;;;;;10370804;28;20381;-70
2023/08/22 09:02:49;;;;;;;4.80;4.18;;;;;;;;;;10369415;28;20117;-71
2023/08/22 09:07:49;;;;;;;4.97;4.10;;;;;;;;;;10370480;28;20037;-71
2023/08/22 09:12:50;;;;;;;6.43;4.47;;;;;;;;;;10370361;28;20448;-70
2023/08/22 09:17:54;;;;;;;5.00;4.37;;;;;;;;;;10370649;28;20033;-71
2023/08/22 09:22:54;;;;;;;4.25;3.85;;;;;;;;;;10369961;28;20187;-71
2023/08/22 09:27:55;;;;;;;4.90;4.40;;;;;;;;;;10369839;28;20176;-71
2023/08/22 09:32:59;;;;;;;5.73;4.33;;;;;;;;;;10369502;28;20041;-71
2023/08/22 09:38:07;;;;;;;7.50;4.43;;;;;;;;;;10369068;28;20038;-71
2023/08/22 09:43:08;;;;;;;6.20;4.30;;;;;;;;;;10369848;28;20022;-71
2023/08/22 09:48:15;;;;;;;4.95;3.90;;;;;;;;;;10369543;28;20133;-70
2023/08/22 09:53:16;;;;;;;4.43;4.03;;;;;;;;;;10369503;28;20037;-71
2023/08/22 09:58:17;;;;;;;5.43;4.47;;;;;;;;;;10367476;28;20413;-71
2023/08/22 10:03:18;;;;;;;5.15;4.10;;;;;;;;;;10369447;28;20026;-70
2023/08/22 10:08:18;;;;;;;5.05;4.50;;;;;;;;;;10367076;28;20349;-70
2023/08/22 10:13:21;;;;;;;5.05;4.32;;;;;;;;;;10368617;28;20040;-71
2023/08/22 10:18:24;;;;;;;7.35;4.80;;;;;;;;;;10366719;28;20496;-71
2023/08/22 10:23:43;;;;;;;6.03;4.90;;;;;;;;;;10367994;28;20022;-70
2023/08/22 10:28:44;;;;;;;5.82;4.38;;;;;;;;;;10367671;28;20386;-71
2023/08/22 10:33:59;;;;;;;5.43;4.93;;;;;;;;;;10367613;28;20033;-70
2023/08/22 10:39:00;;;;;;;4.80;4.40;;;;;;;;;;10367459;28;20542;-70
2023/08/22 10:44:01;;;;;;;4.88;4.47;;;;;;;;;;10367455;28;20381;-70
2023/08/22 10:49:04;;;;;;;4.78;4.20;;;;;;;;;;10366630;28;20112;-71
2023/08/22 10:54:16;;;;;;;6.03;5.18;;;;;;;;;;10367825;28;20038;-71
2023/08/22 10:59:19;;;;;;;5.22;4.70;;;;;;;;;;10367825;28;20049;-71
2023/08/22 11:04:19;;;;;;;5.22;4.72;;;;;;;;;;10367618;28;20018;-70
2023/08/22 11:09:20;;;;;;;6.32;4.53;;;;;;;;;;10365704;28;20026;-70
2023/08/22 11:14:20;;;;;;;5.70;4.55;;;;;;;;;;10373561;28;20101;-71
2023/08/22 11:19:21;;;;;;;7.97;5.17;;;;;;;;;;10374696;28;20382;-71
2023/08/22 11:24:21;;;;;;;4.70;4.30;;;;;;;;;;10373243;28;20114;-70
2023/08/22 11:29:22;;;;;;;5.43;4.85;;;;;;;;;;10374109;28;20616;-70
2023/08/22 11:34:23;;;;;;;6.97;4.80;;;;;;;;;;10373904;28;20265;-68
2023/08/22 11:39:23;;;;;;;6.18;5.18;;;;;;;;;;10374669;28;20438;-70
2023/08/22 11:44:24;;;;;;;5.77;4.97;;;;;;;;;;10373683;28;20113;-69
2023/08/22 11:49:24;;;;;;;5.57;5.07;;;;;;;;;;10374312;28;20189;-68
2023/08/22 11:54:25;;;;;;;7.27;5.00;;;;;;;;;;10372806;28;20450;-70
2023/08/22 11:59:25;;;;;;;5.22;4.72;;;;;;;;;;10373557;28;20022;-70
2023/08/22 12:04:25;;;;;;;5.30;4.80;;;;;;;;;;10372632;28;20080;-70
2023/08/22 12:09:26;;;;;;;6.23;5.03;;;;;;;;;;10371413;28;20080;-69
2023/08/22 12:14:26;;;;;;;5.77;4.73;;;;;;;;;;10372842;28;20161;-70
2023/08/22 12:19:26;;;;;;;5.63;4.97;;;;;;;;;;10372234;28;20030;-70
2023/08/22 12:24:27;;;;;;;4.87;4.47;;;;;;;;;;10370952;28;20034;-70
2023/08/22 12:29:27;;;;;;;5.77;4.83;;;;;;;;;;10371840;28;20056;-70
2023/08/22 12:34:28;;;;;;;5.23;4.73;;;;;;;;;;10371820;28;20030;-70
2023/08/22 12:39:28;;;;;;;5.95;5.20;;;;;;;;;;10371402;28;20113;-70
2023/08/22 12:44:29;;;;;;;4.97;4.50;;;;;;;;;;10371145;28;20025;-70
2023/08/22 12:49:29;;;;;;;5.43;4.80;;;;;;;;;;10371037;28;20117;-70
2023/08/22 12:54:29;;;;;;;5.60;5.10;;;;;;;;;;10370780;28;20280;-70
2023/08/22 12:59:30;;;;;;;5.77;5.00;;;;;;;;;;10371215;28;20037;-70
2023/08/22 13:04:30;;;;;;;5.70;5.20;;;;;;;;;;10370800;28;20022;-70
2023/08/22 13:09:33;;;;;;;5.17;4.63;;;;;;;;;;10370232;28;20049;-70
2023/08/22 13:14:33;;;;;;;5.72;4.90;;;;;;;;;;10370037;28;20069;-70
2023/08/22 13:19:33;;;;;;;5.40;4.90;;;;;;;;;;10369891;28;20042;-70
2023/08/22 13:24:34;;;;;;;5.83;4.93;;;;;;;;;;10369734;28;20531;-70
2023/08/22 13:29:34;;;;;;;5.27;4.77;;;;;;;;;;10369955;28;20038;-70
2023/08/22 13:34:34;;;;;;;4.97;4.57;;;;;;;;;;10369254;28;20847;-70
2023/08/22 13:39:35;;;;;;;5.90;5.30;;;;;;;;;;10369823;28;20389;-70
2023/08/22 13:44:36;;;;;;;5.57;5.00;;;;;;;;;;10368968;28;20425;-70
2023/08/22 13:49:36;;;;;;;5.60;5.00;;;;;;;;;;10368756;28;20038;-70
2023/08/22 13:54:36;;;;;;;6.60;5.00;;;;;;;;;;10368521;28;20022;-70
2023/08/22 13:59:37;;;;;;;7.87;4.80;;;;;;;;;;10368814;28;20444;-70
2023/08/22 14:04:38;;;;;;;5.40;4.90;;;;;;;;;;10368340;28;20112;-70
2023/08/22 14:09:38;;;;;;;5.60;5.10;;;;;;;;;;10368632;28;20034;-70
2023/08/22 14:14:39;;;;;;;5.20;4.70;;;;;;;;;;10368169;28;20022;-70
2023/08/22 14:19:39;;;;;;;7.53;4.97;;;;;;;;;;10366722;28;20640;-70
2023/08/22 14:24:40;;;;;;;5.90;5.30;;;;;;;;;;10367805;28;20026;-70
2023/08/22 14:29:40;;;;;;;5.28;4.78;;;;;;;;;;10367717;28;20465;-70
2023/08/22 14:34:41;;;;;;;5.23;4.57;;;;;;;;;;10367481;28;20037;-70
2023/08/22 14:39:41;;;;;;;7.23;4.80;;;;;;;;;;10367756;28;20030;-70
2023/08/22 14:44:41;;;;;;;4.93;4.53;;;;;;;;;;10367426;28;20033;-70
2023/08/22 14:49:42;;;;;;;5.00;4.60;;;;;;;;;;10375109;28;20030;-70
2023/08/22 14:54:42;;;;;;;5.20;4.73;;;;;;;;;;10375481;28;20117;-70
2023/08/22 14:59:43;;;;;;;5.37;4.87;;;;;;;;;;10375866;28;20033;-70
2023/08/22 15:04:43;;;;;;;5.40;4.90;;;;;;;;;;10376101;28;20021;-70
2023/08/22 15:09:44;;;;;;;5.40;4.90;;;;;;;;;;10374837;28;20405;-70
2023/08/22 15:14:44;;;;;;;4.60;4.20;;;;;;;;;;10374806;28;20041;-70
2023/08/22 15:19:44;;;;;;;5.70;5.10;;;;;;;;;;10375212;28;20036;-70
2023/08/22 15:24:45;;;;;;;4.97;4.47;;;;;;;;;;10374285;28;20087;-70
2023/08/22 15:29:45;;;;;;;5.33;4.83;;;;;;;;;;10374214;28;20041;-70
2023/08/22 15:34:45;;;;;;;4.73;4.33;;;;;;;;;;10374255;28;20072;-70
2023/08/22 15:39:46;;;;;;;5.27;4.87;;;;;;;;;;10373883;28;20036;-70
2023/08/22 15:44:46;;;;;;;5.40;4.77;;;;;;;;;;10373666;28;20033;-70
2023/08/22 15:49:46;;;;;;;4.97;4.57;;;;;;;;;;10373792;28;20156;-70
2023/08/22 15:54:47;;;;;;;4.60;4.20;;;;;;;;;;10373123;28;20029;-70
2023/08/22 15:59:47;;;;;;;5.05;4.57;;;;;;;;;;10373037;28;20048;-70
2023/08/22 16:04:48;;;;;;;4.73;4.33;;;;;;;;;;10372821;28;20022;-70
2023/08/22 16:09:48;;;;;;;5.17;4.67;;;;;;;;;;10373109;28;20109;-70
2023/08/22 16:14:48;;;;;;;4.60;4.20;;;;;;;;;;10372505;28;20446;-70
2023/08/22 16:19:49;;;;;;;4.87;4.47;;;;;;;;;;10372413;28;20026;-67
2023/08/22 16:24:49;;;;;;;6.80;4.20;;;;;;;;;;10371961;28;20096;-70
2023/08/22 16:29:52;;;;;;;5.00;4.50;;;;;;;;;;10371327;28;20026;-70
2023/08/22 16:34:52;;;;;;;4.85;4.38;;;;;;;;;;10370837;28;20493;-65
2023/08/22 16:39:52;;;;;;;5.00;4.43;;;;;;;;;;10371350;28;20029;-65
2023/08/22 16:44:53;;;;;;;6.93;4.20;;;;;;;;;;10370187;28;20109;-65
2023/08/22 16:49:53;;;;;;;4.60;4.17;;;;;;;;;;10371493;28;20029;-65
2023/08/22 16:54:53;;;;;;;5.17;4.67;;;;;;;;;;10371142;28;20477;-65
2023/08/22 16:59:54;;;;;;;4.83;4.37;;;;;;;;;;10371216;28;20026;-66
2023/08/22 17:04:54;;;;;;;5.97;4.63;;;;;;;;;;10370415;28;20584;-65
2023/08/22 17:09:55;;;;;;;4.77;4.37;;;;;;;;;;10369213;28;20040;-64
2023/08/22 17:14:55;;;;;;;5.20;4.10;;;;;;;;;;10369788;28;20029;-64
2023/08/22 17:19:56;;;;;;;4.43;4.03;;;;;;;;;;10367244;28;20185;-66
2023/08/22 17:24:56;;;;;;;4.67;4.03;;;;;;;;;;10368072;28;20080;-66
2023/08/22 17:29:56;;;;;;;4.30;3.90;;;;;;;;;;10370667;28;20084;-66
2023/08/22 17:35:00;;;;;;;3.90;3.60;;;;;;;;;;10369221;28;20437;-66
2023/08/22 17:40:00;;;;;;;4.32;3.92;;;;;;;;;;10368993;28;20041;-65
2023/08/22 17:45:01;;;;;;;4.23;3.83;;;;;;;;;;10369524;28;20049;-67
2023/08/22 17:50:03;;;;;;;7.20;4.30;;;;;;;;;;10368974;28;20385;-66
2023/08/22 17:55:05;;;;;;;4.43;4.03;;;;;;;;;;10369137;28;20462;-65
2023/08/22 18:00:06;;;;;;;4.65;4.00;;;;;;;;;;10367096;28;20037;-66
2023/08/22 18:05:07;;;;;;;5.75;4.10;;;;;;;;;;10368383;28;20030;-66
2023/08/22 18:10:07;;;;;;;4.57;4.13;;;;;;;;;;10368100;28;20029;-66
2023/08/22 18:15:08;;;;;;;4.57;4.13;;;;;;;;;;10368654;28;20033;-66
2023/08/22 18:20:09;;;;;;;4.97;4.30;;;;;;;;;;10367145;28;20041;-65
2023/08/22 18:25:09;;;;;;;4.50;4.00;;;;;;;;;;10367771;28;20026;-65
2023/08/22 18:30:10;;;;;;;4.70;4.30;;;;;;;;;;10368022;28;20381;-66
2023/08/22 18:35:11;;;;;;;4.85;4.13;;;;;;;;;;10367823;28;20514;-65
2023/08/22 18:40:11;;;;;;;4.40;3.67;;;;;;;;;;10367432;28;20061;-62
2023/08/22 18:45:11;;;;;;;7.35;4.13;;;;;;;;;;10367597;28;20257;-65
2023/08/22 18:50:12;;;;;;;6.67;4.43;;;;;;;;;;10367417;28;20101;-64
2023/08/22 18:55:12;;;;;;;5.20;4.30;;;;;;;;;;10367736;28;20088;-66
2023/08/22 19:00:14;;;;;;;6.38;4.35;;;;;;;;;;10366032;28;20037;-64
2023/08/22 19:05:15;;;;;;;7.22;4.18;;;;;;;;;;10366072;28;20026;-64
2023/08/22 19:10:15;;;;;;;5.73;4.40;;;;;;;;;;10366503;28;20033;-64
2023/08/22 19:15:15;;;;;;;6.50;4.23;;;;;;;;;;10366479;28;20436;-64
2023/08/22 19:20:17;;;;;;;6.57;4.23;;;;;;;;;;10366896;28;20049;-65
2023/08/22 19:25:17;;;;;;;6.13;4.35;;;;;;;;;;10365815;28;20026;-64
2023/08/22 19:30:18;;;;;;;6.00;3.93;;;;;;;;;;10366011;28;20501;-64
2023/08/22 19:35:18;;;;;;;6.83;3.97;;;;;;;;;;10371983;28;20315;-64
2023/08/22 19:40:18;;;;;;;6.70;4.00;;;;;;;;;;10373924;28;20428;-65
2023/08/22 19:45:19;;;;;;;8.50;3.93;;;;;;;;;;10373508;28;20034;-64
2023/08/22 19:50:21;;;;;;;3.83;3.43;;;;;;;;;;10373331;28;20112;-64
2023/08/22 19:55:21;;;;;;;6.63;4.40;;;;;;;;;;10372930;28;20506;-64
2023/08/22 20:00:22;;;;;;;5.47;3.67;;;;;;;;;;10373110;28;20076;-65
2023/08/22 20:05:22;;;;;;;5.45;3.92;;;;;;;;;;10372871;28;20466;-65
2023/08/22 20:10:23;;;;;;;4.10;3.27;;;;;;;;;;10372340;28;20033;-64
2023/08/22 20:15:24;;;;;;;4.03;3.63;;;;;;;;;;10372242;28;20448;-65
2023/08/22 20:20:25;;;;;;;5.43;4.20;;;;;;;;;;10372577;28;20099;-65
2023/08/22 20:25:25;;;;;;;4.82;4.22;;;;;;;;;;10371614;28;20093;-65
2023/08/22 20:30:27;;;;;;;4.57;3.70;;;;;;;;;;10372166;28;20030;-65
2023/08/22 20:35:27;;;;;;;5.18;3.92;;;;;;;;;;10372030;28;20038;-65
2023/08/22 20:40:28;;;;;;;6.67;3.50;;;;;;;;;;10371544;28;20025;-65
2023/08/22 20:45:28;;;;;;;3.90;3.20;;;;;;;;;;10370261;28;20455;-64
2023/08/22 20:50:29;;;;;;;4.43;3.50;;;;;;;;;;10372193;28;20025;-64
2023/08/22 20:55:33;;;;;;;4.70;3.50;;;;;;;;;;10371552;28;20025;-65
2023/08/22 21:00:33;;;;;;;5.63;3.30;;;;;;;;;;10369945;28;20033;-65
2023/08/22 21:05:35;;;;;;;4.80;3.80;;;;;;;;;;10371010;28;20022;-66
2023/08/22 21:10:36;;;;;;;4.70;3.28;;;;;;;;;;10369667;28;20455;-65
2023/08/22 21:15:36;;;;;;;4.27;3.47;;;;;;;;;;10371036;28;20030;-65
2023/08/22 21:20:37;;;;;;;6.50;3.53;;;;;;;;;;10370355;28;20025;-65
2023/08/22 21:25:37;;;;;;;5.13;3.47;;;;;;;;;;10369147;28;20111;-65
2023/08/22 21:30:40;;;;;;;8.90;4.00;;;;;;;;;;10368184;28;20026;-68
2023/08/22 21:35:40;;;;;;;5.43;3.67;;;;;;;;;;10368966;28;20359;-70
2023/08/22 21:40:47;;;;;;;23.88;3.83;;;;;;;;;;10369502;28;20093;-70
2023/08/22 21:45:48;;;;;;;13.70;4.00;;;;;;;;;;10369678;28;20401;-75
2023/08/22 21:50:48;;;;;;;8.03;3.93;;;;;;;;;;10367997;28;20030;-66
2023/08/22 21:55:48;;;;;;;16.37;3.60;;;;;;;;;;10368319;28;20025;-70
2023/08/22 22:00:49;;;;;;;30.17;4.27;;;;;;;;;;10369158;28;20108;-68
2023/08/22 22:05:49;;;;;;;18.37;4.10;;;;;;;;;;10368693;28;20389;-71
2023/08/22 22:10:51;;;;;;;14.37;3.57;;;;;;;;;;10368432;28;20535;-71
2023/08/22 22:15:53;;;;;;;21.98;3.85;;;;;;;;;;10368254;28;20342;-72
2023/08/22 22:20:58;;;;;;;17.20;3.88;;;;;;;;;;10368218;28;20022;-66
2023/08/22 22:26:02;;;;;;;10.80;3.00;;;;;;;;;;10367860;28;20440;-66
2023/08/22 22:31:09;;;;;;;8.38;3.25;;;;;;;;;;10367870;28;20443;-66
2023/08/22 22:36:10;;;;;;;9.73;3.22;;;;;;;;;;10367878;28;20037;-66
2023/08/22 22:41:10;;;;;;;8.53;3.23;;;;;;;;;;10368247;28;20096;-69
2023/08/22 22:46:10;;;;;;;7.38;3.35;;;;;;;;;;10368037;28;20455;-69
2023/08/22 22:51:11;;;;;;;4.43;3.30;;;;;;;;;;10367370;28;20033;-69
2023/08/22 22:56:11;;;;;;;6.70;3.20;;;;;;;;;;10365888;28;20050;-68
2023/08/22 23:01:12;;;;;;;10.17;3.43;;;;;;;;;;10367597;28;20463;-67
2023/08/22 23:06:12;;;;;;;7.63;3.60;;;;;;;;;;10368019;28;20113;-68
2023/08/22 23:11:12;;;;;;;7.30;3.07;;;;;;;;;;10375172;28;20033;-67
2023/08/22 23:16:13;;;;;;;4.63;3.33;;;;;;;;;;10375051;28;20021;-73
2023/08/22 23:21:13;;;;;;;6.57;3.00;;;;;;;;;;10375274;28;20057;-73
2023/08/22 23:26:13;;;;;;;4.57;2.93;;;;;;;;;;10374508;28;21036;-70
2023/08/22 23:31:14;;;;;;;4.30;2.77;;;;;;;;;;10374808;28;20460;-66
2023/08/22 23:36:14;;;;;;;6.80;3.20;;;;;;;;;;10374026;28;20073;-66
2023/08/22 23:41:16;;;;;;;5.27;3.40;;;;;;;;;;10374523;28;20030;-66
2023/08/22 23:46:16;;;;;;;7.82;3.20;;;;;;;;;;10373767;28;20088;-66
2023/08/22 23:51:17;;;;;;;2.88;2.53;;;;;;;;;;10373822;28;20381;-66
2023/08/22 23:56:17;;;;;;;4.80;3.17;;;;;;;;;;10373137;28;20373;-69
